Time;durP1;ratioP1;P1;durP2;ratioP2;P2;SDS_P1;SDS_P2;PMS_P1;PMS_P2;Temp;Humidity;BMP_temperature;BMP_pressure;BME280_temperature;BME280_humidity;BME280_pressure;Samples;Min_cycle;Max_cycle;Signal;HPM_P1;HPM_P2
2021/01/09 00:00:49;;;;;;;34.35;25.90;;;;;;;4.36;65.53;100600.97;4935650;28;97223;-67
2021/01/09 00:03:15;;;;;;;32.92;28.48;;;;;;;4.58;64.54;100603.97;4944383;28;98644;-66
2021/01/09 00:05:42;;;;;;;29.38;22.95;;;;;;;4.77;62.86;100602.75;4953515;28;98649;-67
2021/01/09 00:08:08;;;;;;;29.60;24.38;;;;;;;4.73;62.80;100593.34;4953333;28;96823;-65
2021/01/09 00:10:35;;;;;;;29.08;24.40;;;;;;;4.54;63.24;100595.47;4955165;28;96769;-66
2021/01/09 00:13:01;;;;;;;31.20;21.85;;;;;;;4.41;64.18;100599.16;4952081;28;98663;-66
2021/01/09 00:15:27;;;;;;;26.75;20.88;;;;;;;4.51;64.29;100597.25;4916925;28;98675;-66
2021/01/09 00:17:54;;;;;;;25.58;21.45;;;;;;;4.34;65.03;100602.72;4933519;28;96930;-67
2021/01/09 00:20:22;;;;;;;28.02;23.20;;;;;;;4.45;64.93;100593.06;4915922;28;96912;-67
2021/01/09 00:22:49;;;;;;;27.40;21.05;;;;;;;4.44;64.94;100599.09;4931291;28;99584;-67
2021/01/09 00:25:19;;;;;;;26.40;20.73;;;;;;;4.52;64.81;100599.78;4933284;28;98263;-67
2021/01/09 00:27:45;;;;;;;25.52;21.58;;;;;;;4.69;63.91;100595.16;4943402;28;96667;-66
2021/01/09 00:30:12;;;;;;;27.38;20.90;;;;;;;4.69;64.29;100592.56;4953119;28;96912;-64
2021/01/09 00:32:38;;;;;;;26.75;20.27;;;;;;;4.76;63.80;100590.72;4942545;28;98564;-64
2021/01/09 00:35:05;;;;;;;29.23;23.17;;;;;;;4.70;63.59;100596.00;4933797;28;98619;-65
2021/01/09 00:37:32;;;;;;;28.20;22.00;;;;;;;4.90;63.08;100595.56;4916825;28;96928;-64
2021/01/09 00:39:58;;;;;;;28.65;22.67;;;;;;;4.79;63.59;100600.13;4935146;28;96614;-65
2021/01/09 00:42:24;;;;;;;31.10;22.63;;;;;;;4.78;64.04;100598.41;4934587;28;98714;-64
2021/01/09 00:44:51;;;;;;;29.70;23.85;;;;;;;4.63;64.84;100599.56;4932458;28;98585;-65
2021/01/09 00:47:17;;;;;;;29.50;22.17;;;;;;;4.81;63.53;100595.78;4916220;28;97061;-65
2021/01/09 00:49:44;;;;;;;26.90;21.45;;;;;;;4.92;62.78;100599.00;4932169;28;97206;-67
2021/01/09 00:52:10;;;;;;;29.27;23.67;;;;;;;4.95;62.51;100604.09;4932917;28;98551;-67
2021/01/09 00:54:37;;;;;;;27.88;21.50;;;;;;;4.92;63.35;100599.84;4939379;28;98444;-67
2021/01/09 00:57:03;;;;;;;27.63;20.77;;;;;;;4.88;62.85;100595.63;4951585;28;96484;-67
2021/01/09 00:59:30;;;;;;;28.05;21.95;;;;;;;4.83;63.76;100596.59;4946997;28;96963;-66
2021/01/09 01:01:56;;;;;;;24.65;19.10;;;;;;;4.93;63.44;100590.34;4944220;28;98725;-67
2021/01/09 01:04:23;;;;;;;28.63;21.40;;;;;;;4.83;64.62;100604.34;4951842;28;98426;-66
2021/01/09 01:06:50;;;;;;;26.45;21.48;;;;;;;4.76;64.95;100602.78;4951211;28;96978;-66
2021/01/09 01:09:16;;;;;;;27.60;21.95;;;;;;;4.77;64.72;100609.63;4953446;28;96681;-65
2021/01/09 01:11:42;;;;;;;25.83;22.10;;;;;;;4.82;64.48;100606.09;4941764;28;98647;-65
2021/01/09 01:14:09;;;;;;;26.40;22.13;;;;;;;4.71;64.91;100608.88;4932717;28;98547;-66
2021/01/09 01:16:35;;;;;;;25.80;20.95;;;;;;;4.81;64.58;100619.03;4940323;28;96502;-66
2021/01/09 01:19:03;;;;;;;28.17;21.98;;;;;;;4.55;65.64;100611.81;4952793;28;97195;-65
2021/01/09 01:21:29;;;;;;;28.95;23.33;;;;;;;4.43;65.10;100612.91;4951342;28;98428;-67
2021/01/09 01:23:55;;;;;;;29.27;23.33;;;;;;;4.34;65.16;100607.91;4950504;28;97566;-66
2021/01/09 01:26:22;;;;;;;26.92;21.05;;;;;;;4.36;65.76;100616.44;4952195;28;97056;-66
2021/01/09 01:28:48;;;;;;;31.65;22.75;;;;;;;4.23;66.33;100615.00;4936482;28;97073;-66
2021/01/09 01:31:15;;;;;;;28.92;24.08;;;;;;;4.39;65.70;100617.25;4951553;28;98464;-67
2021/01/09 01:33:42;;;;;;;31.52;24.17;;;;;;;4.47;65.53;100624.84;4950692;28;98660;-67
2021/01/09 01:36:11;;;;;;;37.47;24.10;;;;;;;4.58;64.26;100620.34;4952266;28;96934;-67
2021/01/09 01:38:37;;;;;;;27.80;22.00;;;;;;;4.56;64.80;100624.69;4951701;28;96768;-66
2021/01/09 01:41:07;;;;;;;25.70;21.65;;;;;;;4.68;64.25;100634.75;4952400;28;98699;-67
2021/01/09 01:43:34;;;;;;;26.70;21.13;;;;;;;4.61;65.28;100630.59;4934308;28;98684;-66
2021/01/09 01:46:02;;;;;;;26.23;20.10;;;;;;;4.44;65.89;100627.50;4952017;28;98458;-66
2021/01/09 01:48:28;;;;;;;27.17;21.80;;;;;;;4.43;66.02;100633.53;4951046;28;97567;-65
2021/01/09 01:50:55;;;;;;;27.45;22.13;;;;;;;4.51;66.05;100630.81;4937710;28;98528;-67
2021/01/09 01:53:21;;;;;;;25.65;20.30;;;;;;;4.71;65.19;100636.44;4947241;28;98553;-67
2021/01/09 01:55:49;;;;;;;30.00;21.52;;;;;;;4.53;65.84;100624.75;4953554;28;96841;-67
2021/01/09 01:58:16;;;;;;;27.50;23.88;;;;;;;4.65;65.33;100618.50;4937747;28;96931;-67
2021/01/09 02:00:46;;;;;;;29.40;21.85;;;;;;;4.49;66.42;100612.78;4954037;28;98630;-67
2021/01/09 02:03:16;;;;;;;27.15;20.90;;;;;;;4.70;65.08;100607.19;4955424;28;98771;-67
2021/01/09 02:05:57;;;;;;;28.17;22.83;;;;;;;4.66;65.02;100600.38;4939693;28;96845;-67
2021/01/09 02:08:27;;;;;;;28.98;22.45;;;;;;;4.70;65.31;100596.00;4933283;28;96600;-67
2021/01/09 02:10:55;;;;;;;25.52;20.60;;;;;;;4.62;65.84;100600.47;4933663;28;98457;-66
2021/01/09 02:13:28;;;;;;;27.45;22.25;;;;;;;4.65;66.28;100613.31;4901932;28;98477;-67
2021/01/09 02:15:54;;;;;;;27.00;22.58;;;;;;;4.76;65.09;100628.59;4934740;28;96758;-67
2021/01/09 02:18:20;;;;;;;27.38;20.35;;;;;;;4.82;65.08;100625.91;4938148;28;96641;-66
2021/01/09 02:20:50;;;;;;;23.35;20.80;;;;;;;4.87;65.00;100632.66;4938678;28;97286;-66
2021/01/09 02:23:16;;;;;;;28.58;21.33;;;;;;;4.80;65.42;100638.00;4903927;28;98597;-66
2021/01/09 02:25:43;;;;;;;28.42;20.10;;;;;;;4.74;66.05;100649.31;4937432;28;96860;-65
2021/01/09 02:28:09;;;;;;;26.60;21.80;;;;;;;4.92;65.28;100648.09;4953332;28;97188;-65
2021/01/09 02:30:36;;;;;;;24.85;20.35;;;;;;;4.80;65.29;100659.50;4933780;28;97694;-66
2021/01/09 02:33:06;;;;;;;28.27;22.60;;;;;;;4.71;65.95;100660.53;4930837;28;98489;-66
2021/01/09 02:35:33;;;;;;;24.25;19.65;;;;;;;4.84;65.31;100671.47;4954026;28;97171;-65
2021/01/09 02:38:00;;;;;;;20.95;18.02;;;;;;;4.91;64.90;100667.91;4938191;28;96625;-65
2021/01/09 02:40:26;;;;;;;27.15;21.55;;;;;;;4.83;65.55;100663.75;4937228;28;98442;-65
2021/01/09 02:42:53;;;;;;;25.60;20.75;;;;;;;4.84;65.40;100661.13;4955038;28;98550;-65
2021/01/09 02:45:19;;;;;;;26.83;21.38;;;;;;;4.92;64.76;100661.00;4952658;28;96707;-65
2021/01/09 02:47:45;;;;;;;23.52;19.08;;;;;;;4.82;65.58;100662.06;4934723;28;96697;-66
2021/01/09 02:50:12;;;;;;;26.27;20.60;;;;;;;4.62;66.21;100665.03;4934017;28;98518;-66
2021/01/09 02:52:39;;;;;;;23.58;18.90;;;;;;;4.62;66.45;100662.44;4954533;28;98584;-66
2021/01/09 02:55:06;;;;;;;26.77;22.10;;;;;;;4.51;65.76;100664.38;4937396;28;97594;-66
2021/01/09 02:57:32;;;;;;;24.67;19.25;;;;;;;4.36;64.72;100668.06;4935124;28;96998;-66
2021/01/09 02:59:59;;;;;;;24.42;18.85;;;;;;;4.26;65.66;100669.09;4933068;28;98524;-66
2021/01/09 03:02:25;;;;;;;22.13;18.90;;;;;;;4.11;65.47;100665.94;4933932;28;98694;-66
2021/01/09 03:04:52;;;;;;;23.95;17.73;;;;;;;4.04;66.29;100660.88;4946110;28;96879;-66
2021/01/09 03:07:18;;;;;;;21.90;18.05;;;;;;;4.33;64.91;100652.66;4954896;28;96986;-66
2021/01/09 03:09:44;;;;;;;22.60;17.85;;;;;;;4.37;64.54;100651.72;4942109;28;100359;-66
2021/01/09 03:12:11;;;;;;;20.90;18.10;;;;;;;4.34;64.43;100649.19;4934277;28;98460;-66
2021/01/09 03:14:38;;;;;;;23.42;19.20;;;;;;;4.45;64.45;100644.69;4935246;28;96934;-66
2021/01/09 03:17:04;;;;;;;22.35;17.85;;;;;;;4.17;65.16;100647.75;4936861;28;96671;-66
2021/01/09 03:19:30;;;;;;;21.35;16.90;;;;;;;4.15;65.66;100636.59;4934157;28;98714;-67
2021/01/09 03:21:57;;;;;;;25.88;20.17;;;;;;;3.92;66.16;100637.00;4932739;28;98838;-66
2021/01/09 03:24:23;;;;;;;25.08;18.05;;;;;;;4.15;64.69;100628.84;4934289;28;96942;-66
2021/01/09 03:26:49;;;;;;;22.25;17.73;;;;;;;4.10;64.98;100622.97;4947394;28;96760;-65
2021/01/09 03:29:16;;;;;;;22.23;17.63;;;;;;;4.26;64.73;100604.59;4936865;28;98658;-66
2021/01/09 03:31:43;;;;;;;22.27;18.08;;;;;;;4.38;63.91;100604.38;4941289;28;98646;-66
2021/01/09 03:34:09;;;;;;;25.77;18.30;;;;;;;4.10;65.22;100594.56;4934425;28;96926;-66
2021/01/09 03:36:36;;;;;;;21.90;18.38;;;;;;;4.19;64.97;100602.13;4943696;28;96949;-67
2021/01/09 03:39:02;;;;;;;27.58;18.73;;;;;;;4.35;64.22;100604.44;4954750;28;98708;-67
2021/01/09 03:41:33;;;;;;;21.25;16.65;;;;;;;4.38;63.89;100607.81;4952841;28;98440;-67
2021/01/09 03:44:01;;;;;;;22.38;18.25;;;;;;;4.42;64.00;100603.44;4951900;28;99741;-67
2021/01/09 03:46:27;;;;;;;21.40;18.90;;;;;;;4.34;64.69;100607.91;4942450;28;97491;-67
2021/01/09 03:48:54;;;;;;;22.75;17.45;;;;;;;4.43;63.83;100618.06;4932329;28;98503;-67
2021/01/09 03:51:20;;;;;;;21.25;17.92;;;;;;;4.41;65.00;100627.53;4943257;28;101455;-67
2021/01/09 03:53:47;;;;;;;20.25;16.25;;;;;;;4.47;63.78;100627.41;4949765;28;96854;-67
2021/01/09 03:56:13;;;;;;;25.55;18.52;;;;;;;4.31;64.74;100628.59;4938612;28;96962;-67
2021/01/09 03:58:39;;;;;;;22.13;18.60;;;;;;;4.34;64.63;100621.66;4952649;28;99450;-67
2021/01/09 04:01:05;;;;;;;21.58;16.45;;;;;;;4.30;64.82;100619.16;4952577;28;98630;-67
2021/01/09 04:03:32;;;;;;;21.50;17.27;;;;;;;4.41;64.44;100625.81;4953201;28;96596;-67
2021/01/09 04:05:59;;;;;;;23.17;18.08;;;;;;;4.45;64.17;100621.44;4936131;28;97287;-65
2021/01/09 04:08:25;;;;;;;19.77;16.80;;;;;;;4.21;65.02;100630.50;4933894;28;97411;-65
2021/01/09 04:10:52;;;;;;;24.70;18.05;;;;;;;4.38;64.27;100625.03;4942641;28;98647;-65
2021/01/09 04:13:18;;;;;;;20.90;18.60;;;;;;;4.39;63.90;100626.72;4935171;28;96911;-66
2021/01/09 04:15:45;;;;;;;24.83;19.38;;;;;;;4.34;63.99;100628.53;4951424;28;97174;-66
2021/01/09 04:18:11;;;;;;;23.70;19.30;;;;;;;4.22;64.84;100639.09;4952754;28;98587;-66
2021/01/09 04:20:37;;;;;;;21.95;18.23;;;;;;;3.97;65.89;100634.34;4949194;28;98539;-66
2021/01/09 04:23:04;;;;;;;37.30;17.20;;;;;;;4.09;65.07;100634.13;4936346;28;97060;-66
2021/01/09 04:25:33;;;;;;;19.90;16.80;;;;;;;4.18;64.44;100633.13;4951438;28;96916;-66
2021/01/09 04:27:59;;;;;;;20.60;16.88;;;;;;;4.05;65.12;100642.81;4932721;28;98543;-66
2021/01/09 04:30:25;;;;;;;21.95;18.45;;;;;;;4.06;65.77;100643.66;4948821;28;98594;-66
2021/01/09 04:32:52;;;;;;;21.02;17.10;;;;;;;4.08;65.36;100657.38;4953803;28;96590;-65
2021/01/09 04:35:18;;;;;;;23.38;17.95;;;;;;;4.13;65.21;100651.25;4950976;28;96772;-66
2021/01/09 04:37:44;;;;;;;24.98;18.63;;;;;;;4.11;65.26;100658.19;4953545;28;98499;-66
2021/01/09 04:40:11;;;;;;;19.58;17.48;;;;;;;4.06;65.60;100660.00;4949607;28;98769;-66
2021/01/09 04:42:37;;;;;;;20.13;16.27;;;;;;;4.15;65.12;100659.81;4952754;28;96808;-66
2021/01/09 04:45:04;;;;;;;21.42;15.68;;;;;;;4.27;65.13;100655.34;4945757;28;96749;-66
2021/01/09 04:47:31;;;;;;;24.58;18.55;;;;;;;4.33;63.83;100657.81;4930976;28;98596;-65
2021/01/09 04:49:59;;;;;;;24.05;20.88;;;;;;;4.15;64.62;100651.22;4930982;28;98473;-66
2021/01/09 04:52:26;;;;;;;24.15;18.75;;;;;;;4.07;64.46;100646.22;4930085;28;97596;-66
2021/01/09 04:54:52;;;;;;;23.77;20.00;;;;;;;4.03;64.44;100647.13;4933597;28;96761;-66
2021/01/09 04:57:19;;;;;;;25.42;19.10;;;;;;;4.10;64.65;100650.47;4898690;28;98571;-65
2021/01/09 04:59:45;;;;;;;22.38;19.70;;;;;;;4.19;64.12;100648.56;4932924;28;98320;-65
2021/01/09 05:02:13;;;;;;;24.02;18.00;;;;;;;4.22;64.48;100633.94;4914249;28;97052;-66
2021/01/09 05:04:44;;;;;;;25.27;21.15;;;;;;;4.11;64.79;100629.81;4932746;28;96608;-66
2021/01/09 05:07:10;;;;;;;24.58;20.48;;;;;;;4.30;63.34;100621.72;4916452;28;98735;-67
2021/01/09 05:09:37;;;;;;;25.50;19.45;;;;;;;4.35;63.33;100622.50;4934500;28;98428;-66
2021/01/09 05:12:04;;;;;;;33.58;24.48;;;;;;;4.29;63.33;100625.19;4933516;28;96797;-66
2021/01/09 05:14:30;;;;;;;40.17;28.80;;;;;;;4.31;63.21;100620.84;4924971;28;96893;-66
2021/01/09 05:16:58;;;;;;;30.90;23.08;;;;;;;4.41;62.53;100612.06;4951945;28;98901;-65
2021/01/09 05:19:29;;;;;;;33.58;24.75;;;;;;;4.10;64.16;100606.59;4944802;28;98626;-65
2021/01/09 05:21:56;;;;;;;27.77;20.73;;;;;;;3.85;65.05;100606.19;4932442;28;96737;-66
2021/01/09 05:24:23;;;;;;;28.73;21.33;;;;;;;4.04;64.59;100611.88;4934729;28;96766;-65
2021/01/09 05:26:49;;;;;;;29.70;20.45;;;;;;;4.12;63.97;100612.59;4952048;28;98477;-66
2021/01/09 05:29:16;;;;;;;24.50;20.08;;;;;;;4.09;64.60;100621.22;4950685;28;98516;-66
2021/01/09 05:31:42;;;;;;;26.52;20.95;;;;;;;4.00;65.55;100624.00;4952068;28;96958;-66
2021/01/09 05:34:09;;;;;;;27.60;22.55;;;;;;;4.00;65.25;100611.09;4950847;28;97569;-66
2021/01/09 05:36:35;;;;;;;27.70;22.17;;;;;;;4.19;64.70;100607.28;4951825;28;98787;-66
2021/01/09 05:39:03;;;;;;;26.67;21.00;;;;;;;4.07;65.09;100601.50;4952532;28;98493;-65
2021/01/09 05:41:29;;;;;;;23.15;19.73;;;;;;;3.99;66.14;100617.09;4953523;28;96583;-65
2021/01/09 05:44:05;;;;;;;25.00;22.27;;;;;;;4.12;65.24;100628.09;4954234;28;96747;-65
2021/01/09 05:46:33;;;;;;;28.80;21.58;;;;;;;4.14;65.47;100629.75;4931623;28;98524;-65
2021/01/09 05:48:59;;;;;;;24.90;20.50;;;;;;;4.02;66.04;100635.13;4932500;28;98534;-65
2021/01/09 05:51:39;;;;;;;26.08;21.17;;;;;;;4.25;65.40;100639.03;4948750;28;97722;-64
2021/01/09 05:54:07;;;;;;;26.05;19.88;;;;;;;4.37;64.65;100638.81;4939849;28;96842;-65
2021/01/09 05:56:42;;;;;;;24.08;19.13;;;;;;;4.29;64.68;100648.41;4933066;28;98723;-65
2021/01/09 05:59:09;;;;;;;25.75;20.20;;;;;;;4.24;64.39;100657.97;4909622;28;98586;-66
2021/01/09 06:01:36;;;;;;;26.80;21.83;;;;;;;4.26;64.30;100666.53;4951106;28;97477;-66
2021/01/09 06:04:12;;;;;;;26.65;22.15;;;;;;;4.33;64.21;100668.16;4917248;28;96875;-66
2021/01/09 06:06:58;;;;;;;25.15;21.30;;;;;;;4.24;64.92;100686.34;4933578;28;98520;-67
2021/01/09 06:09:25;;;;;;;27.88;21.30;;;;;;;4.36;64.81;100696.47;4919502;28;98828;-67
2021/01/09 06:11:55;;;;;;;26.75;22.42;;;;;;;4.35;65.28;100687.03;4931148;28;96902;-67
2021/01/09 06:14:25;;;;;;;24.67;21.00;;;;;;;4.28;65.15;100685.44;4933442;28;96859;-67
2021/01/09 06:16:51;;;;;;;29.85;23.30;;;;;;;4.25;65.34;100680.31;4950021;28;98531;-67
2021/01/09 06:19:20;;;;;;;27.75;23.27;;;;;;;4.22;65.22;100682.97;4918659;28;98729;-67
2021/01/09 06:21:46;;;;;;;27.25;22.85;;;;;;;4.25;65.06;100680.31;4951428;28;96787;-66
2021/01/09 06:24:12;;;;;;;26.88;23.50;;;;;;;4.08;64.71;100678.03;4933436;28;96798;-67
2021/01/09 06:26:40;;;;;;;26.38;21.48;;;;;;;3.98;66.15;100671.31;4951761;28;98580;-67
2021/01/09 06:29:20;;;;;;;24.20;19.90;;;;;;;4.09;64.86;100662.50;4930802;28;98660;-67
2021/01/09 06:31:53;;;;;;;26.55;21.13;;;;;;;4.12;64.96;100664.19;4932766;28;97191;-67
2021/01/09 06:34:21;;;;;;;25.60;22.25;;;;;;;3.88;65.84;100661.13;4936726;28;96567;-67
2021/01/09 06:36:51;;;;;;;27.30;21.40;;;;;;;3.87;65.58;100664.59;4953682;28;98664;-66
2021/01/09 06:39:17;;;;;;;29.00;21.85;;;;;;;4.06;64.85;100656.56;4937112;28;98472;-66
2021/01/09 06:41:43;;;;;;;27.52;21.60;;;;;;;4.07;64.60;100650.53;4920860;28;99578;-65
2021/01/09 06:44:10;;;;;;;28.92;22.20;;;;;;;3.92;65.61;100647.31;4905787;28;97229;-65
2021/01/09 06:46:37;;;;;;;31.23;22.70;;;;;;;4.04;64.45;100646.25;4920381;28;98397;-65
2021/01/09 06:49:04;;;;;;;25.60;22.27;;;;;;;4.08;64.88;100641.91;4909659;28;98609;-65
2021/01/09 06:51:40;;;;;;;28.27;20.85;;;;;;;4.24;63.93;100653.66;4945135;28;96728;-66
2021/01/09 06:54:16;;;;;;;27.35;23.60;;;;;;;4.41;63.25;100663.69;4942646;28;97032;-66
2021/01/09 06:56:42;;;;;;;28.00;22.13;;;;;;;4.49;62.88;100663.56;4944697;28;98443;-67
2021/01/09 06:59:09;;;;;;;25.20;21.20;;;;;;;4.42;62.94;100679.16;4943857;28;98589;-67
2021/01/09 07:01:36;;;;;;;26.63;21.42;;;;;;;4.31;64.24;100680.22;4945190;28;96931;-67
2021/01/09 07:04:03;;;;;;;29.05;22.92;;;;;;;4.11;65.10;100678.84;4946554;28;96638;-66
2021/01/09 07:06:54;;;;;;;25.98;20.05;;;;;;;4.04;65.84;100691.84;4947932;28;98454;-66
2021/01/09 07:09:24;;;;;;;30.17;22.20;;;;;;;4.28;63.87;100700.91;4945838;28;98591;-66
2021/01/09 07:11:53;;;;;;;25.48;21.00;;;;;;;4.28;64.36;100695.75;4945516;28;96749;-65
2021/01/09 07:14:20;;;;;;;27.60;21.10;;;;;;;4.30;64.43;100687.09;4944525;28;97473;-66
2021/01/09 07:16:46;;;;;;;29.58;21.00;;;;;;;4.14;65.48;100688.22;4949112;28;98864;-67
2021/01/09 07:19:14;;;;;;;29.30;22.25;;;;;;;4.06;65.88;100696.13;4944627;28;98564;-66
2021/01/09 07:21:41;;;;;;;25.50;20.95;;;;;;;4.12;65.47;100701.16;4949937;28;97422;-66
2021/01/09 07:24:08;;;;;;;30.25;20.63;;;;;;;4.18;65.07;100690.75;4935925;28;97225;-66
2021/01/09 07:26:39;;;;;;;27.52;21.73;;;;;;;4.04;66.03;100694.41;4931637;28;98495;-70
2021/01/09 07:29:05;;;;;;;28.83;21.42;;;;;;;4.12;65.57;100696.00;4950063;28;99151;-73
2021/01/09 07:31:32;;;;;;;28.23;21.70;;;;;;;4.23;64.54;100703.56;4943126;28;96974;-72
2021/01/09 07:33:59;;;;;;;26.75;21.15;;;;;;;4.35;64.73;100700.78;4946594;28;96655;-73
2021/01/09 07:36:27;;;;;;;28.35;22.08;;;;;;;4.39;64.97;100707.59;4943531;28;98581;-70
2021/01/09 07:39:09;;;;;;;27.95;22.13;;;;;;;4.42;64.75;100704.97;4941817;28;98949;-69
2021/01/09 07:41:45;;;;;;;28.73;21.52;;;;;;;4.65;64.21;100691.66;4941593;28;97078;-72
2021/01/09 07:44:15;;;;;;;26.67;22.30;;;;;;;4.94;63.18;100697.97;4928257;28;96913;-71
2021/01/09 07:46:56;;;;;;;27.13;21.92;;;;;;;4.96;62.29;100698.81;4951270;28;97479;-64
2021/01/09 07:49:32;;;;;;;27.67;21.42;;;;;;;5.11;61.90;100702.81;4947688;28;98868;-63
2021/01/09 07:52:11;;;;;;;24.77;19.88;;;;;;;5.09;61.52;100707.16;4943036;28;96638;-63
2021/01/09 07:54:39;;;;;;;28.60;21.45;;;;;;;5.12;61.58;100702.78;4946241;28;97031;-63
2021/01/09 07:57:25;;;;;;;27.35;20.67;;;;;;;5.18;61.89;100714.75;4949312;28;98808;-63
2021/01/09 07:59:55;;;;;;;27.60;20.58;;;;;;;5.16;61.84;100708.72;4941276;28;97467;-61
2021/01/09 08:02:31;;;;;;;27.27;19.88;;;;;;;5.50;61.11;100724.41;4951716;28;96629;-66
2021/01/09 08:05:13;;;;;;;29.73;22.63;;;;;;;5.41;61.15;100722.00;4952228;28;96711;-68
2021/01/09 08:07:47;;;;;;;30.67;21.20;;;;;;;5.33;61.26;100721.34;4947770;28;98926;-68
2021/01/09 08:10:34;;;;;;;27.30;21.20;;;;;;;5.19;61.24;100725.03;4931045;28;97933;-70
2021/01/09 08:13:09;;;;;;;25.90;20.80;;;;;;;5.19;61.14;100732.78;4944902;28;96572;-62
2021/01/09 08:15:39;;;;;;;28.00;21.80;;;;;;;5.22;61.48;100740.50;4948643;28;97137;-62
2021/01/09 08:18:19;;;;;;;23.80;20.38;;;;;;;5.28;60.84;100756.75;4935169;28;99475;-62
2021/01/09 08:20:55;;;;;;;28.35;20.90;;;;;;;5.30;60.62;100758.41;4941751;28;97361;-62
2021/01/09 08:23:26;;;;;;;30.27;22.63;;;;;;;5.17;61.51;100763.00;4951207;28;96987;-62
2021/01/09 08:26:01;;;;;;;28.25;22.42;;;;;;;5.08;61.80;100763.16;4947371;28;96915;-62
2021/01/09 08:28:33;;;;;;;34.05;23.52;;;;;;;5.08;61.81;100752.81;4924686;28;99898;-61
2021/01/09 08:31:07;;;;;;;26.83;21.63;;;;;;;5.00;62.60;100758.13;4936390;28;97402;-61
2021/01/09 08:33:38;;;;;;;31.00;20.58;;;;;;;5.03;61.73;100753.81;4936685;28;97217;-61
2021/01/09 08:36:08;;;;;;;26.95;21.17;;;;;;;5.10;61.68;100755.38;4953861;28;98938;-59
2021/01/09 08:38:41;;;;;;;23.80;19.63;;;;;;;5.08;62.30;100752.81;4919926;28;98962;-59
2021/01/09 08:41:17;;;;;;;29.75;21.80;;;;;;;4.97;62.27;100736.69;4953555;28;98570;-59
2021/01/09 08:43:46;;;;;;;37.25;27.23;;;;;;;5.00;61.84;100736.59;4949543;28;96631;-63
2021/01/09 08:46:12;;;;;;;68.07;42.95;;;;;;;5.07;62.46;100738.22;4916710;28;97045;-63
2021/01/09 08:48:39;;;;;;;62.65;40.50;;;;;;;5.07;62.11;100733.03;4946990;28;98581;-61
2021/01/09 08:51:15;;;;;;;52.70;33.88;;;;;;;5.24;61.19;100722.38;4951467;28;98632;-64
2021/01/09 08:53:41;;;;;;;36.40;27.23;;;;;;;5.26;60.58;100729.19;4922261;28;96990;-62
2021/01/09 08:56:07;;;;;;;34.15;25.67;;;;;;;5.26;60.53;100736.09;4953402;28;96706;-64
2021/01/09 08:58:34;;;;;;;36.65;26.92;;;;;;;5.30;60.46;100742.91;4919816;28;98746;-64
2021/01/09 09:01:01;;;;;;;35.95;26.20;;;;;;;5.45;60.17;100758.13;4951821;28;98564;-64
2021/01/09 09:03:28;;;;;;;29.30;24.20;;;;;;;5.32;60.50;100755.78;4953645;28;96613;-65
2021/01/09 09:05:54;;;;;;;32.55;23.13;;;;;;;5.55;60.14;100766.53;4935459;28;97693;-64
2021/01/09 09:08:20;;;;;;;30.00;22.83;;;;;;;5.67;59.86;100773.19;4953623;28;98855;-64
2021/01/09 09:10:47;;;;;;;28.15;23.05;;;;;;;5.77;59.30;100778.13;4916386;28;98645;-63
2021/01/09 09:13:32;;;;;;;33.03;22.15;;;;;;;5.85;59.08;100784.84;4916189;28;96772;-63
2021/01/09 09:16:14;;;;;;;27.52;22.00;;;;;;;5.86;58.58;100783.97;4948277;28;97341;-63
2021/01/09 09:18:41;;;;;;;25.58;19.20;;;;;;;5.86;58.83;100777.06;4935344;28;99151;-65
2021/01/09 09:21:10;;;;;;;29.80;23.48;;;;;;;5.50;59.74;100779.56;4949807;28;98483;-64
2021/01/09 09:23:37;;;;;;;30.42;24.23;;;;;;;5.66;59.03;100780.09;4951813;28;96974;-64
2021/01/09 09:26:13;;;;;;;30.20;23.02;;;;;;;5.83;59.16;100778.88;4950764;28;96646;-61
2021/01/09 09:28:49;;;;;;;29.13;21.95;;;;;;;5.88;59.08;100783.06;4950037;28;98659;-61
2021/01/09 09:31:26;;;;;;;27.77;22.10;;;;;;;5.84;58.80;100783.16;4949820;28;98639;-65
2021/01/09 09:34:01;;;;;;;30.90;23.98;;;;;;;5.87;58.91;100777.94;4949432;28;96832;-67
2021/01/09 09:36:28;;;;;;;29.05;20.98;;;;;;;5.94;58.86;100776.94;4953072;28;97117;-66
2021/01/09 09:38:55;;;;;;;31.00;23.52;;;;;;;5.97;59.28;100787.22;4945971;28;98724;-64
2021/01/09 09:41:21;;;;;;;28.70;21.45;;;;;;;6.12;57.95;100784.25;4946591;28;98426;-65
2021/01/09 09:43:55;;;;;;;26.08;23.05;;;;;;;6.16;57.72;100783.31;4929367;28;96703;-65
2021/01/09 09:46:22;;;;;;;25.10;21.13;;;;;;;6.25;57.14;100777.91;4947913;28;96772;-64
2021/01/09 09:48:48;;;;;;;24.48;21.55;;;;;;;6.29;57.50;100778.72;4950457;28;98480;-63
2021/01/09 09:51:15;;;;;;;28.95;23.60;;;;;;;6.22;57.32;100784.91;4949877;28;97487;-65
2021/01/09 09:53:52;;;;;;;24.95;20.73;;;;;;;6.17;57.31;100784.16;4949957;28;96608;-67
2021/01/09 09:56:22;;;;;;;24.83;20.48;;;;;;;6.11;57.16;100774.78;4948784;28;96846;-65
2021/01/09 09:59:00;;;;;;;26.70;21.05;;;;;;;6.26;56.75;100784.78;4945166;28;98404;-65
2021/01/09 10:01:27;;;;;;;22.80;17.98;;;;;;;6.37;55.45;100776.78;4941736;28;98783;-67
2021/01/09 10:03:53;;;;;;;21.80;18.23;;;;;;;6.32;54.52;100770.00;4945699;28;96567;-65
2021/01/09 10:06:22;;;;;;;27.33;20.20;;;;;;;6.23;54.23;100764.19;4950889;28;97154;-63
2021/01/09 10:08:48;;;;;;;23.70;19.17;;;;;;;6.21;54.06;100760.75;4950375;28;98538;-64
2021/01/09 10:11:15;;;;;;;25.90;18.67;;;;;;;6.25;53.33;100761.53;4953580;28;98532;-64
2021/01/09 10:13:41;;;;;;;36.63;19.10;;;;;;;6.27;54.32;100759.75;4938518;28;96760;-63
2021/01/09 10:16:08;;;;;;;25.02;18.90;;;;;;;6.27;54.88;100750.25;4950538;28;96743;-62
2021/01/09 10:18:35;;;;;;;22.90;19.17;;;;;;;6.35;54.36;100746.63;4952704;28;98691;-63
2021/01/09 10:21:03;;;;;;;19.65;15.90;;;;;;;6.39;53.28;100749.13;4952608;28;98519;-62
2021/01/09 10:23:30;;;;;;;18.15;14.88;;;;;;;6.25;52.43;100741.69;4952967;28;99647;-62
2021/01/09 10:25:57;;;;;;;18.60;16.60;;;;;;;6.19;53.19;100744.41;4954654;28;97268;-62
2021/01/09 10:28:24;;;;;;;23.88;19.05;;;;;;;6.03;54.56;100743.94;4948738;28;98538;-64
2021/01/09 10:30:50;;;;;;;22.48;19.52;;;;;;;6.10;55.88;100739.44;4955418;28;98431;-62
2021/01/09 10:33:17;;;;;;;25.13;21.65;;;;;;;6.07;56.44;100731.75;4952864;28;96938;-63
2021/01/09 10:35:47;;;;;;;26.75;21.85;;;;;;;6.18;56.19;100727.19;4952028;28;96643;-61
2021/01/09 10:38:14;;;;;;;21.10;18.17;;;;;;;6.32;55.63;100721.66;4954416;28;96962;-62
2021/01/09 10:40:41;;;;;;;22.85;20.08;;;;;;;6.14;54.49;100732.47;4953183;28;97461;-61
2021/01/09 10:43:08;;;;;;;23.50;16.98;;;;;;;6.28;53.57;100726.09;4956089;28;97095;-62
2021/01/09 10:45:34;;;;;;;19.27;15.88;;;;;;;6.17;53.54;100722.88;4948316;28;96698;-62
2021/01/09 10:48:01;;;;;;;18.63;15.38;;;;;;;6.28;54.31;100714.84;4946379;28;98707;-62
2021/01/09 10:50:27;;;;;;;21.98;16.75;;;;;;;6.34;53.29;100708.66;4950456;28;98660;-63
2021/01/09 10:52:53;;;;;;;20.05;14.95;;;;;;;6.28;52.71;100707.06;4951517;28;96504;-62
2021/01/09 10:55:20;;;;;;;18.00;14.23;;;;;;;6.11;52.63;100712.69;4952563;28;96661;-63
2021/01/09 10:57:47;;;;;;;15.43;13.25;;;;;;;6.14;50.22;100710.03;4949946;28;98514;-63
2021/01/09 11:00:15;;;;;;;14.98;12.75;;;;;;;6.18;49.40;100708.19;4935751;28;98456;-63
2021/01/09 11:02:42;;;;;;;16.50;12.30;;;;;;;6.39;48.80;100711.97;4953864;28;96676;-65
2021/01/09 11:05:09;;;;;;;14.50;12.10;;;;;;;6.43;49.23;100704.09;4955160;28;96723;-65
2021/01/09 11:07:36;;;;;;;15.55;13.00;;;;;;;6.34;51.48;100698.31;4948023;28;98905;-65
2021/01/09 11:10:03;;;;;;;29.92;21.27;;;;;;;6.27;53.45;100693.28;4945117;28;98553;-65
2021/01/09 11:12:29;;;;;;;24.25;20.80;;;;;;;6.19;53.59;100692.66;4950277;28;96616;-66
2021/01/09 11:14:56;;;;;;;22.15;18.95;;;;;;;6.08;54.21;100684.28;4947434;28;96704;-66
2021/01/09 11:17:22;;;;;;;28.40;21.35;;;;;;;5.94;55.51;100674.25;4951156;28;98699;-66
2021/01/09 11:19:49;;;;;;;30.00;24.23;;;;;;;5.98;56.24;100665.56;4949528;28;98733;-65
2021/01/09 11:22:15;;;;;;;27.42;22.35;;;;;;;5.78;59.56;100667.72;4952269;28;96627;-64